createdAt,value
2018-02-01T00:04:32.823Z,2.63
2018-02-01T00:09:36.649Z,4.13
2018-02-01T00:14:40.475Z,4.90
2018-02-01T00:19:44.725Z,5.00
2018-02-01T00:24:47.792Z,2.70
2018-02-01T00:29:51.629Z,3.73
2018-02-01T00:40:07.382Z,4.53
2018-02-01T00:45:10.445Z,6.47
2018-02-01T00:50:15.003Z,7.07
2018-02-01T00:55:19.417Z,3.73
2018-02-01T01:00:22.478Z,5.00
2018-02-01T01:05:26.302Z,5.00
2018-02-01T01:10:30.870Z,4.00
2018-02-01T01:15:33.934Z,4.93
2018-02-01T01:20:38.346Z,5.83
2018-02-01T01:25:41.402Z,4.27
2018-02-01T01:30:45.226Z,4.67
2018-02-01T01:35:48.669Z,6.90
2018-02-01T01:40:51.733Z,8.20
2018-02-01T01:46:10.206Z,7.47
2018-02-01T01:51:13.259Z,7.37
2018-02-01T01:56:17.821Z,7.73
2018-02-01T02:01:21.647Z,6.53
2018-02-01T02:06:24.713Z,5.77
2018-02-01T02:11:27.774Z,6.47
2018-02-01T02:16:31.974Z,7.27
2018-02-01T02:21:35.026Z,8.00
2018-02-01T02:26:38.858Z,8.27
2018-02-01T02:31:42.318Z,10.07
2018-02-01T02:36:45.781Z,10.23
2018-02-01T02:41:49.606Z,6.57
2018-02-01T02:46:53.071Z,7.03
2018-02-01T02:51:56.898Z,9.43
2018-02-01T02:57:00.369Z,6.67
2018-02-01T03:02:04.898Z,8.53
2018-02-01T03:07:08.341Z,5.63
2018-02-01T03:12:11.398Z,6.37
2018-02-01T03:17:15.843Z,5.70
2018-02-01T03:22:20.415Z,8.47
2018-02-01T03:27:24.030Z,6.40
2018-02-01T03:32:27.902Z,7.60
2018-02-01T03:37:31.461Z,8.17
2018-02-01T03:42:34.994Z,6.67
2018-02-01T03:47:39.012Z,7.67
2018-02-01T03:52:47.513Z,6.70
2018-02-01T03:57:51.059Z,7.83
2018-02-01T04:02:55.355Z,6.77
2018-02-01T04:07:58.923Z,7.07
2018-02-01T04:13:06.318Z,8.73
2018-02-01T04:18:10.956Z,7.73
2018-02-01T04:23:14.856Z,8.67
2018-02-01T04:28:17.998Z,6.33
2018-02-01T04:33:21.097Z,5.43
2018-02-01T04:38:24.553Z,9.00
2018-02-01T04:43:28.973Z,5.43
2018-02-01T04:48:33.402Z,5.47
2018-02-01T04:53:37.603Z,10.60
2018-02-01T04:58:42.226Z,10.00
2018-02-01T05:03:45.294Z,6.17
2018-02-01T05:08:49.704Z,6.77
2018-02-01T05:13:52.770Z,7.10
2018-02-01T05:18:57.347Z,5.50
2018-02-01T05:24:01.178Z,8.03
2018-02-01T05:29:04.641Z,7.20
2018-02-01T05:34:07.703Z,5.33
2018-02-01T05:39:11.155Z,5.33
2018-02-01T05:44:14.217Z,8.47
2018-02-01T05:49:17.710Z,5.90
2018-02-01T05:54:21.559Z,7.23
2018-02-01T05:59:25.014Z,6.20
2018-02-01T06:04:28.099Z,5.93
2018-02-01T06:09:31.935Z,7.90
2018-02-01T06:14:35.438Z,7.07
2018-02-01T06:19:38.931Z,7.93
2018-02-01T06:24:43.515Z,6.57
2018-02-01T06:29:47.003Z,7.10
2018-02-01T06:34:50.848Z,8.03
2018-02-01T06:39:54.705Z,6.53
2018-02-01T06:44:58.551Z,11.18
2018-02-01T06:50:02.434Z,6.83
2018-02-01T06:55:06.849Z,7.00
2018-02-01T07:00:11.269Z,6.43
2018-02-01T07:05:15.709Z,7.17
2018-02-01T07:10:18.774Z,8.40
2018-02-01T07:15:21.842Z,7.93
2018-02-01T07:20:24.916Z,6.33
2018-02-01T07:25:30.077Z,8.17
2018-02-01T07:30:34.511Z,11.07
2018-02-01T07:35:38.935Z,8.50
2018-02-01T07:40:42.426Z,5.43
2018-02-01T07:45:46.235Z,6.70
2018-02-01T07:50:50.927Z,5.70
2018-02-01T07:55:55.151Z,8.30
2018-02-01T08:00:59.741Z,11.40
2018-02-01T08:06:03.965Z,11.77
2018-02-01T08:11:07.039Z,6.70
2018-02-01T08:16:12.222Z,7.33
2018-02-01T08:21:16.684Z,5.80
2018-02-01T08:26:21.116Z,5.13
2018-02-01T08:31:26.043Z,6.50
2018-02-01T08:36:30.782Z,7.93
2018-02-01T08:41:33.848Z,7.63
2018-02-01T08:46:36.943Z,6.80
2018-02-01T08:51:41.370Z,7.57
2018-02-01T08:56:45.207Z,9.70
2018-02-01T09:01:49.638Z,6.80
2018-02-01T09:06:54.072Z,4.75
2018-02-01T09:11:57.135Z,9.40
2018-02-01T09:17:01.568Z,4.90
2018-02-01T09:22:06.003Z,9.83
2018-02-01T09:27:10.438Z,5.43
2018-02-01T09:32:14.276Z,6.63
2018-02-01T09:37:18.044Z,9.20
2018-02-01T09:42:22.478Z,8.40
2018-02-01T09:47:26.975Z,5.60
2018-02-01T09:52:31.418Z,8.80
2018-02-01T09:57:35.859Z,5.60
2018-02-01T10:02:40.273Z,7.70
2018-02-01T10:07:44.706Z,4.80
2018-02-01T10:12:47.794Z,5.25
2018-02-01T10:17:52.367Z,4.83
2018-02-01T10:22:56.799Z,8.87
2018-02-01T10:28:02.162Z,11.87
2018-02-01T10:33:05.256Z,16.20
2018-02-01T10:38:08.718Z,11.43
2018-02-01T10:43:13.190Z,7.87
2018-02-01T10:48:17.357Z,6.70
2018-02-01T10:53:22.759Z,4.47
2018-02-01T10:58:27.179Z,9.00
2018-02-01T11:03:31.403Z,6.87
2018-02-01T11:08:35.858Z,6.63
2018-02-01T11:13:40.287Z,4.77
2018-02-01T11:18:43.766Z,5.60
2018-02-01T11:23:48.191Z,5.78
2018-02-01T11:28:51.668Z,6.93
2018-02-01T11:33:56.119Z,7.43
2018-02-01T11:38:59.203Z,2.17
2018-02-01T11:44:03.638Z,4.97
2018-02-01T11:49:08.074Z,5.63
2018-02-01T11:54:11.535Z,4.87
2018-02-01T11:59:15.740Z,8.87
2018-02-01T12:04:20.167Z,4.60
2018-02-01T12:09:24.591Z,3.03
2018-02-01T12:14:27.664Z,3.13
2018-02-01T12:19:31.531Z,4.80
2018-02-01T12:24:36.107Z,7.50
2018-02-01T12:29:40.550Z,11.13
2018-02-01T12:34:44.986Z,4.27
2018-02-01T12:39:49.416Z,6.87
2018-02-01T12:44:52.891Z,5.47
2018-02-01T12:49:57.319Z,4.73
2018-02-01T12:55:01.894Z,4.53
2018-02-01T13:00:06.100Z,4.35
2018-02-01T13:05:10.531Z,4.97
2018-02-01T13:10:14.387Z,6.83
2018-02-01T13:15:17.868Z,4.07
2018-02-01T13:20:22.308Z,4.70
2018-02-01T13:25:26.147Z,5.97
2018-02-01T13:30:30.025Z,4.73
2018-02-01T13:35:33.082Z,4.97
2018-02-01T13:40:36.467Z,7.63
2018-02-01T13:45:40.889Z,5.57
2018-02-01T13:50:45.332Z,7.37
2018-02-01T13:55:48.416Z,8.53
2018-02-01T14:00:52.915Z,4.60
2018-02-01T14:05:57.343Z,8.27
2018-02-01T14:11:01.918Z,4.10
2018-02-01T14:16:06.359Z,3.77
2018-02-01T14:21:09.840Z,2.90
2018-02-01T14:26:14.270Z,4.27
2018-02-01T14:31:18.559Z,5.97
2018-02-01T14:36:22.995Z,2.37
2018-02-01T14:41:27.494Z,3.20
2018-02-01T14:46:30.579Z,1.97
2018-02-01T14:51:34.404Z,2.27
2018-02-01T14:56:38.886Z,1.83
2018-02-01T15:01:43.312Z,2.00
2018-02-01T15:06:46.395Z,1.90
2018-02-01T15:11:50.607Z,2.27
2018-02-01T15:16:55.063Z,1.80
2018-02-01T15:21:59.485Z,1.90
2018-02-01T15:27:03.907Z,2.40
2018-02-01T15:32:08.334Z,2.17
2018-02-01T15:37:12.168Z,2.37
2018-02-01T15:42:16.587Z,2.30
2018-02-01T15:47:19.671Z,3.70
2018-02-01T15:52:24.250Z,2.90
2018-02-01T15:57:27.307Z,2.83
2018-02-01T16:02:30.766Z,3.07
2018-02-01T16:07:35.198Z,2.93
2018-02-01T16:12:39.598Z,3.43
2018-02-01T16:17:43.803Z,3.70
2018-02-01T16:22:47.777Z,3.67
2018-02-01T16:27:51.979Z,5.60
2018-02-01T16:32:55.055Z,4.30
2018-02-01T16:37:59.465Z,4.17
2018-02-01T16:43:02.549Z,6.20
2018-02-01T16:48:06.970Z,5.13
2018-02-01T16:53:11.385Z,4.83
2018-02-01T16:58:14.858Z,6.13
2018-02-01T17:03:19.294Z,7.30
2018-02-01T17:08:23.123Z,6.07
2018-02-01T17:13:26.253Z,9.20
2018-02-01T17:18:30.666Z,10.60
2018-02-01T17:23:34.374Z,6.20
2018-02-01T17:28:38.830Z,8.10
2018-02-01T17:33:42.335Z,8.80
2018-02-01T17:38:46.932Z,5.60
2018-02-01T17:43:50.779Z,6.60
2018-02-01T17:48:55.446Z,6.33
2018-02-01T17:53:58.928Z,5.80
2018-02-01T17:59:04.108Z,9.10
2018-02-01T18:04:08.305Z,7.00
2018-02-01T18:09:13.533Z,10.30
2018-02-01T18:14:18.103Z,5.93
2018-02-01T18:19:22.525Z,13.30
2018-02-01T18:24:26.358Z,7.30
2018-02-01T18:29:29.647Z,8.03
2018-02-01T18:34:34.152Z,5.17
2018-02-01T18:39:38.579Z,4.43
2018-02-01T18:44:43.001Z,5.80
2018-02-01T18:49:47.585Z,7.87
2018-02-01T18:54:50.987Z,7.07
2018-02-01T18:59:55.175Z,6.07
2018-02-01T19:04:59.587Z,5.27
2018-02-01T19:10:04.167Z,5.83
2018-02-01T19:15:07.847Z,5.43
2018-02-01T19:20:10.908Z,7.00
2018-02-01T19:25:15.463Z,6.43
2018-02-01T19:30:19.882Z,6.20
2018-02-01T19:35:24.298Z,6.22
2018-02-01T19:40:28.722Z,7.77
2018-02-01T19:45:32.932Z,6.37
2018-02-01T19:50:37.712Z,6.73
2018-02-01T19:55:42.263Z,7.20
2018-02-01T20:00:45.720Z,7.20
2018-02-01T20:05:50.365Z,6.27
2018-02-01T20:10:54.582Z,6.70
2018-02-01T20:15:57.636Z,9.80
2018-02-01T20:21:00.734Z,7.50
2018-02-01T20:26:05.147Z,8.83
2018-02-01T20:31:08.666Z,7.30
2018-02-01T20:36:13.209Z,7.33
2018-02-01T20:41:17.661Z,7.40
2018-02-01T20:46:20.694Z,8.43
2018-02-01T20:51:25.269Z,7.90
2018-02-01T20:56:28.338Z,9.15
2018-02-01T21:01:32.166Z,10.23
2018-02-01T21:06:36.738Z,8.27
2018-02-01T21:11:40.951Z,10.23
2018-02-01T21:16:47.898Z,8.90
2018-02-01T21:21:50.991Z,10.23
2018-02-01T21:26:55.214Z,12.57
2018-02-01T21:32:04.394Z,9.60
2018-02-01T21:37:07.470Z,10.37
2018-02-01T21:42:10.539Z,9.27
2018-02-01T21:47:14.742Z,8.43
2018-02-01T21:52:19.777Z,9.77
2018-02-01T21:57:24.186Z,9.53
2018-02-01T22:02:27.274Z,8.83
2018-02-01T22:07:30.343Z,14.40
2018-02-01T22:12:33.819Z,12.05
2018-02-01T22:17:38.408Z,9.33
2018-02-01T22:22:42.625Z,11.50
2018-02-01T22:27:45.720Z,10.13
2018-02-01T22:32:50.131Z,10.60
2018-02-01T22:37:54.279Z,9.60
2018-02-01T22:42:57.351Z,11.00
2018-02-01T22:48:02.311Z,11.57
2018-02-01T22:53:06.717Z,10.03
2018-02-01T22:58:09.795Z,12.13
2018-02-01T23:03:14.290Z,12.47
2018-02-01T23:08:18.512Z,10.80
2018-02-01T23:13:21.785Z,12.70
2018-02-01T23:18:26.422Z,10.30
2018-02-01T23:23:29.511Z,11.77
2018-02-01T23:28:32.602Z,11.37
2018-02-01T23:33:37.063Z,11.20
2018-02-01T23:38:41.603Z,10.40
2018-02-01T23:43:44.662Z,12.67
2018-02-01T23:48:48.127Z,13.67
2018-02-01T23:53:52.331Z,10.45
2018-02-01T23:58:55.787Z,9.90
